Time;durP1;ratioP1;P1;durP2;ratioP2;P2;SDS_P1;SDS_P2;PMS_P1;PMS_P2;Temp;Humidity;BMP_temperature;BMP_pressure;BME280_temperature;BME280_humidity;BME280_pressure;Samples;Min_cycle;Max_cycle;Signal;HPM_P1;HPM_P2
2022/01/31 00:00:11;;;;;;;;;;;21.20;53.90;;;;;;685531;28;910;-84
2022/01/31 00:00:31;;;;;;;;;;;21.20;57.00;;;;;;685366;28;1400;-84
2022/01/31 00:00:52;;;;;;;;;;;21.20;58.10;;;;;;686360;28;854;-84
2022/01/31 00:01:13;;;;;;;;;;;21.20;58.40;;;;;;688663;28;961;-85
2022/01/31 00:01:35;;;;;;;;;;;21.20;59.20;;;;;;685838;28;933;-84
2022/01/31 00:01:56;;;;;;;;;;;21.20;59.00;;;;;;682776;29;1274;-84
2022/01/31 00:02:17;;;;;;;;;;;21.30;62.40;;;;;;681036;29;1529;-84
2022/01/31 00:02:37;;;;;;;;;;;21.30;63.60;;;;;;683203;29;828;-84
2022/01/31 00:02:58;;;;;;;;;;;21.30;64.50;;;;;;680501;29;1364;-83
2022/01/31 00:03:19;;;;;;;;;;;21.30;64.90;;;;;;681310;29;1398;-83
2022/01/31 00:03:39;;;;;;;;;;;21.30;65.90;;;;;;683673;28;831;-84
2022/01/31 00:04:00;;;;;;;;;;;21.30;67.00;;;;;;686206;28;509;-83
2022/01/31 00:04:21;;;;;;;;;;;21.30;68.00;;;;;;688564;28;886;-84
2022/01/31 00:04:44;;;;;;;;;;;21.40;68.40;;;;;;688946;28;882;-85
2022/01/31 00:05:05;;;;;;;;;;;21.40;69.20;;;;;;691570;28;834;-84
2022/01/31 00:05:25;;;;;;;;;;;21.40;70.50;;;;;;691323;28;1294;-84
2022/01/31 00:05:46;;;;;;;;;;;21.40;71.40;;;;;;691128;28;1332;-84
2022/01/31 00:06:06;;;;;;;;;;;21.50;72.00;;;;;;691469;28;732;-84
2022/01/31 00:06:27;;;;;;;;;;;21.50;71.60;;;;;;690931;28;1459;-83
2022/01/31 00:06:48;;;;;;;;;;;21.50;71.90;;;;;;688617;28;1452;-82
2022/01/31 00:07:10;;;;;;;;;;;21.50;72.50;;;;;;685118;28;1454;-84
2022/01/31 00:07:31;;;;;;;;;;;21.50;72.50;;;;;;684657;28;1460;-85
2022/01/31 00:07:51;;;;;;;;;;;21.50;73.00;;;;;;680355;29;1583;-84
2022/01/31 00:08:12;;;;;;;;;;;21.50;73.30;;;;;;683127;29;1398;-84
2022/01/31 00:08:32;;;;;;;;;;;21.50;74.10;;;;;;683042;29;1571;-84
2022/01/31 00:08:53;;;;;;;;;;;21.50;73.80;;;;;;680812;29;1956;-83
2022/01/31 00:09:15;;;;;;;;;;;21.60;73.60;;;;;;680689;29;1392;-84
2022/01/31 00:09:37;;;;;;;;;;;21.60;73.30;;;;;;683845;28;815;-84
2022/01/31 00:09:57;;;;;;;;;;;21.60;73.40;;;;;;683186;28;1229;-83
2022/01/31 00:10:27;;;;;;;;;;;21.60;74.40;;;;;;683089;29;1347;-83
2022/01/31 00:10:48;;;;;;;;;;;21.60;75.10;;;;;;685069;28;819;-83
2022/01/31 00:11:08;;;;;;;;;;;21.60;74.40;;;;;;684889;28;1289;-83
2022/01/31 00:11:29;;;;;;;;;;;21.60;74.40;;;;;;685809;28;873;-83
2022/01/31 00:11:58;;;;;;;;;;;21.60;75.10;;;;;;687274;28;1505;-83
2022/01/31 00:12:20;;;;;;;;;;;21.60;74.70;;;;;;689323;28;1569;-83
2022/01/31 00:12:59;;;;;;;;;;;21.60;75.20;;;;;;691350;28;873;-83
2022/01/31 00:13:25;;;;;;;;;;;21.50;75.90;;;;;;688547;28;849;-83
2022/01/31 00:13:57;;;;;;;;;;;21.70;77.90;;;;;;687170;28;1386;-83
2022/01/31 00:14:30;;;;;;;;;;;21.70;78.90;;;;;;690616;28;1783;-83
2022/01/31 00:14:53;;;;;;;;;;;21.70;79.70;;;;;;685729;28;1333;-84
2022/01/31 00:15:14;;;;;;;;;;;21.70;81.20;;;;;;685796;28;850;-84
2022/01/31 00:15:39;;;;;;;;;;;21.70;81.00;;;;;;684027;28;1253;-83
2022/01/31 00:16:01;;;;;;;;;;;21.70;80.70;;;;;;685784;28;1287;-84
2022/01/31 00:16:25;;;;;;;;;;;21.80;80.60;;;;;;685819;28;838;-83
2022/01/31 00:16:45;;;;;;;;;;;21.70;80.80;;;;;;686329;28;1399;-82
2022/01/31 00:17:06;;;;;;;;;;;21.70;79.10;;;;;;688616;28;1356;-83
2022/01/31 00:17:27;;;;;;;;;;;21.80;79.30;;;;;;690200;28;764;-82
2022/01/31 00:17:48;;;;;;;;;;;21.80;79.20;;;;;;690298;28;1017;-82
2022/01/31 00:18:08;;;;;;;;;;;21.80;79.30;;;;;;688718;28;1692;-83
2022/01/31 00:18:29;;;;;;;;;;;21.80;78.90;;;;;;686127;28;958;-83
2022/01/31 00:18:49;;;;;;;;;;;21.80;79.20;;;;;;685763;28;1599;-83
2022/01/31 00:19:10;;;;;;;;;;;21.80;77.70;;;;;;685901;28;792;-85
2022/01/31 00:19:31;;;;;;;;;;;21.80;77.00;;;;;;685868;28;961;-83
2022/01/31 00:19:51;;;;;;;;;;;21.80;77.20;;;;;;685857;28;905;-83
2022/01/31 00:20:12;;;;;;;;;;;21.80;77.20;;;;;;688563;28;835;-84
2022/01/31 00:20:32;;;;;;;;;;;21.80;77.40;;;;;;688881;28;835;-84
2022/01/31 00:20:53;;;;;;;;;;;21.80;77.00;;;;;;691163;28;902;-82
2022/01/31 00:21:14;;;;;;;;;;;21.80;76.80;;;;;;691744;28;1764;-84
2022/01/31 00:21:34;;;;;;;;;;;21.80;76.80;;;;;;691260;28;1822;-84
2022/01/31 00:21:55;;;;;;;;;;;21.80;77.20;;;;;;691137;28;834;-84
2022/01/31 00:22:15;;;;;;;;;;;21.80;76.30;;;;;;688405;28;871;-84
2022/01/31 00:22:36;;;;;;;;;;;21.80;75.90;;;;;;688576;28;1729;-83
2022/01/31 00:22:56;;;;;;;;;;;21.80;75.70;;;;;;690931;28;1511;-84
2022/01/31 00:23:17;;;;;;;;;;;21.80;75.70;;;;;;687899;28;1693;-85
2022/01/31 00:23:38;;;;;;;;;;;21.80;75.70;;;;;;687000;28;1623;-82
2022/01/31 00:23:58;;;;;;;;;;;21.70;69.50;;;;;;687020;28;1658;-83
2022/01/31 00:24:19;;;;;;;;;;;21.80;71.30;;;;;;686826;28;1836;-83
2022/01/31 00:24:40;;;;;;;;;;;21.50;70.40;;;;;;683349;28;1647;-82
2022/01/31 00:25:00;;;;;;;;;;;21.70;72.50;;;;;;685639;28;1651;-83
2022/01/31 00:25:21;;;;;;;;;;;21.80;72.50;;;;;;682753;29;1696;-83
2022/01/31 00:25:41;;;;;;;;;;;21.70;73.10;;;;;;683363;28;911;-84
2022/01/31 00:26:02;;;;;;;;;;;21.70;73.30;;;;;;685883;28;890;-83
2022/01/31 00:26:22;;;;;;;;;;;21.70;73.90;;;;;;685539;28;1700;-84
2022/01/31 00:26:43;;;;;;;;;;;21.70;73.30;;;;;;686013;28;1655;-84
2022/01/31 00:27:05;;;;;;;;;;;21.70;73.40;;;;;;685656;28;1651;-83
2022/01/31 00:27:25;;;;;;;;;;;21.70;74.80;;;;;;686121;28;1541;-83
2022/01/31 00:27:47;;;;;;;;;;;21.70;74.50;;;;;;685627;28;1745;-83
2022/01/31 00:28:08;;;;;;;;;;;21.70;74.40;;;;;;683136;29;1199;-86
2022/01/31 00:28:28;;;;;;;;;;;21.70;72.60;;;;;;683216;29;760;-85
2022/01/31 00:28:49;;;;;;;;;;;21.70;74.50;;;;;;683620;28;1906;-84
2022/01/31 00:29:09;;;;;;;;;;;21.70;74.00;;;;;;684715;28;1436;-84
2022/01/31 00:29:30;;;;;;;;;;;21.70;67.70;;;;;;688932;28;791;-83
2022/01/31 00:29:51;;;;;;;;;;;21.70;71.10;;;;;;688634;28;1358;-84
2022/01/31 00:30:11;;;;;;;;;;;21.70;71.90;;;;;;691056;28;1301;-85
2022/01/31 00:30:32;;;;;;;;;;;21.70;72.90;;;;;;691188;28;886;-83
2022/01/31 00:30:52;;;;;;;;;;;21.70;74.00;;;;;;688353;28;1204;-83
2022/01/31 00:31:14;;;;;;;;;;;21.60;74.40;;;;;;686075;28;1559;-84
2022/01/31 00:31:34;;;;;;;;;;;21.70;78.00;;;;;;686208;28;1590;-83
2022/01/31 00:31:55;;;;;;;;;;;21.70;83.10;;;;;;688487;28;1444;-83
2022/01/31 00:32:16;;;;;;;;;;;21.70;83.80;;;;;;685680;28;1403;-82
2022/01/31 00:32:37;;;;;;;;;;;21.70;83.80;;;;;;683800;28;1425;-82
2022/01/31 00:32:57;;;;;;;;;;;21.70;84.20;;;;;;686119;28;875;-83
2022/01/31 00:33:18;;;;;;;;;;;21.70;84.30;;;;;;688490;28;1356;-83
2022/01/31 00:33:38;;;;;;;;;;;21.70;82.80;;;;;;688198;28;1713;-84
2022/01/31 00:33:59;;;;;;;;;;;21.70;81.60;;;;;;687198;28;1642;-83
2022/01/31 00:34:19;;;;;;;;;;;21.70;81.70;;;;;;688508;28;906;-84
2022/01/31 00:34:40;;;;;;;;;;;21.70;81.20;;;;;;688916;28;1016;-84
2022/01/31 00:35:00;;;;;;;;;;;21.70;80.70;;;;;;691252;28;952;-84
2022/01/31 00:35:21;;;;;;;;;;;21.70;80.00;;;;;;691194;28;937;-85
2022/01/31 00:35:41;;;;;;;;;;;21.70;79.40;;;;;;688287;28;1413;-85
2022/01/31 00:36:02;;;;;;;;;;;21.70;79.00;;;;;;687781;28;1623;-84
2022/01/31 00:36:23;;;;;;;;;;;21.70;79.00;;;;;;685711;28;1315;-84
2022/01/31 00:36:43;;;;;;;;;;;21.70;78.20;;;;;;685664;28;1750;-84
2022/01/31 00:37:04;;;;;;;;;;;21.70;77.80;;;;;;685677;28;1345;-83
2022/01/31 00:37:24;;;;;;;;;;;21.70;77.30;;;;;;683257;28;1699;-84
2022/01/31 00:37:45;;;;;;;;;;;21.70;76.60;;;;;;682831;29;1644;-83
2022/01/31 00:38:06;;;;;;;;;;;21.70;75.90;;;;;;682909;29;1560;-83
2022/01/31 00:38:27;;;;;;;;;;;21.70;75.80;;;;;;682975;29;1448;-83
2022/01/31 00:38:48;;;;;;;;;;;21.60;74.70;;;;;;680399;29;1498;-83
2022/01/31 00:39:08;;;;;;;;;;;21.60;74.40;;;;;;680845;29;1234;-81
2022/01/31 00:39:33;;;;;;;;;;;21.60;74.30;;;;;;683685;28;1351;-82
2022/01/31 00:39:54;;;;;;;;;;;21.60;73.60;;;;;;685702;28;1409;-84
2022/01/31 00:40:15;;;;;;;;;;;21.60;73.00;;;;;;685751;28;874;-82
2022/01/31 00:40:41;;;;;;;;;;;21.60;73.00;;;;;;684215;28;807;-84
2022/01/31 00:41:02;;;;;;;;;;;21.50;71.90;;;;;;687724;28;843;-83
2022/01/31 00:41:22;;;;;;;;;;;21.60;71.80;;;;;;688437;28;1593;-82
2022/01/31 00:41:43;;;;;;;;;;;21.60;71.50;;;;;;686722;28;827;-82
2022/01/31 00:42:05;;;;;;;;;;;21.50;70.90;;;;;;688613;28;839;-84
2022/01/31 00:42:28;;;;;;;;;;;21.50;70.40;;;;;;685811;28;1307;-83
2022/01/31 00:42:48;;;;;;;;;;;21.60;69.90;;;;;;685813;28;795;-83
2022/01/31 00:43:12;;;;;;;;;;;21.60;69.60;;;;;;686606;28;800;-84
2022/01/31 00:43:35;;;;;;;;;;;21.50;69.20;;;;;;689770;28;823;-84
2022/01/31 00:44:14;;;;;;;;;;;21.50;68.50;;;;;;688496;28;1280;-86
2022/01/31 00:44:48;;;;;;;;;;;21.50;68.60;;;;;;688583;28;934;-83
2022/01/31 00:45:13;;;;;;;;;;;21.50;68.80;;;;;;685747;28;847;-81
2022/01/31 00:45:42;;;;;;;;;;;21.40;67.30;;;;;;685832;28;827;-82
2022/01/31 00:46:10;;;;;;;;;;;21.40;67.00;;;;;;686136;28;1534;-81
2022/01/31 00:46:39;;;;;;;;;;;21.40;66.60;;;;;;685882;28;898;-86
2022/01/31 00:47:04;;;;;;;;;;;21.40;66.20;;;;;;687276;28;835;-81
2022/01/31 00:47:28;;;;;;;;;;;21.40;67.20;;;;;;688473;28;905;-82
2022/01/31 00:47:59;;;;;;;;;;;21.40;66.30;;;;;;686344;28;1182;-81
2022/01/31 00:48:25;;;;;;;;;;;21.40;65.70;;;;;;688484;28;855;-81
2022/01/31 00:48:46;;;;;;;;;;;21.40;66.40;;;;;;688357;28;1898;-82
2022/01/31 00:49:12;;;;;;;;;;;21.40;66.20;;;;;;688561;28;827;-81
2022/01/31 00:50:05;;;;;;;;;;;21.30;64.90;;;;;;691411;28;862;-82
2022/01/31 00:50:27;;;;;;;;;;;21.30;64.10;;;;;;688631;28;1670;-82
2022/01/31 00:50:47;;;;;;;;;;;21.30;64.50;;;;;;688434;28;871;-82
2022/01/31 00:51:09;;;;;;;;;;;21.30;64.70;;;;;;688531;28;1338;-82
2022/01/31 00:51:30;;;;;;;;;;;21.30;64.50;;;;;;685128;28;1036;-82
2022/01/31 00:51:50;;;;;;;;;;;21.30;64.50;;;;;;685676;28;874;-83
2022/01/31 00:52:11;;;;;;;;;;;21.30;63.50;;;;;;686056;28;1202;-85
2022/01/31 00:52:32;;;;;;;;;;;21.30;63.10;;;;;;688498;28;800;-83
2022/01/31 00:52:52;;;;;;;;;;;21.30;63.20;;;;;;688422;28;831;-82
2022/01/31 00:53:14;;;;;;;;;;;21.30;63.40;;;;;;688764;28;1436;-82
2022/01/31 00:53:35;;;;;;;;;;;21.30;62.70;;;;;;688253;28;1359;-82
2022/01/31 00:53:56;;;;;;;;;;;21.20;62.40;;;;;;686280;28;847;-81
2022/01/31 00:54:16;;;;;;;;;;;21.30;63.60;;;;;;685660;28;1232;-82
2022/01/31 00:54:37;;;;;;;;;;;21.30;62.10;;;;;;685976;28;772;-82
2022/01/31 00:54:58;;;;;;;;;;;21.30;62.60;;;;;;682991;28;1310;-81
2022/01/31 00:55:18;;;;;;;;;;;21.30;63.20;;;;;;680652;29;860;-81
2022/01/31 00:55:39;;;;;;;;;;;21.20;61.60;;;;;;683208;29;828;-81
2022/01/31 00:56:00;;;;;;;;;;;21.20;61.40;;;;;;683320;28;1432;-82
2022/01/31 00:56:20;;;;;;;;;;;21.20;62.80;;;;;;683151;29;820;-83
2022/01/31 00:56:41;;;;;;;;;;;21.20;61.70;;;;;;683590;28;922;-83
2022/01/31 00:57:01;;;;;;;;;;;21.20;61.20;;;;;;686243;28;827;-83
2022/01/31 00:57:22;;;;;;;;;;;21.20;61.50;;;;;;688466;28;728;-85
2022/01/31 00:57:44;;;;;;;;;;;21.20;61.40;;;;;;685964;28;942;-85
2022/01/31 00:58:04;;;;;;;;;;;21.20;61.40;;;;;;688627;28;870;-84
2022/01/31 00:58:25;;;;;;;;;;;21.20;60.60;;;;;;688497;28;784;-85
2022/01/31 00:58:45;;;;;;;;;;;21.20;60.40;;;;;;685289;28;1217;-85
2022/01/31 00:59:06;;;;;;;;;;;21.20;60.90;;;;;;685112;28;1453;-82
2022/01/31 00:59:26;;;;;;;;;;;21.20;60.40;;;;;;683430;28;839;-84
2022/01/31 00:59:51;;;;;;;;;;;21.20;60.60;;;;;;682978;29;1433;-84
2022/01/31 01:00:12;;;;;;;;;;;21.10;61.70;;;;;;683076;29;886;-85
2022/01/31 01:00:32;;;;;;;;;;;21.10;61.90;;;;;;683960;28;937;-84
2022/01/31 01:00:53;;;;;;;;;;;21.10;60.90;;;;;;685742;28;808;-82
2022/01/31 01:01:14;;;;;;;;;;;21.20;62.60;;;;;;686606;28;875;-82
2022/01/31 01:01:34;;;;;;;;;;;21.10;62.30;;;;;;689348;28;795;-83
2022/01/31 01:01:55;;;;;;;;;;;21.10;60.70;;;;;;691440;28;831;-84
2022/01/31 01:02:15;;;;;;;;;;;21.10;60.60;;;;;;688009;28;1255;-84
2022/01/31 01:02:36;;;;;;;;;;;21.10;61.30;;;;;;688406;28;1201;-84
2022/01/31 01:02:57;;;;;;;;;;;21.10;60.50;;;;;;688492;28;815;-84
2022/01/31 01:03:17;;;;;;;;;;;21.10;60.60;;;;;;688574;28;788;-82
2022/01/31 01:03:38;;;;;;;;;;;21.10;59.60;;;;;;688570;28;930;-83
2022/01/31 01:03:58;;;;;;;;;;;21.10;60.90;;;;;;685338;28;943;-83
2022/01/31 01:04:19;;;;;;;;;;;21.10;60.50;;;;;;683242;28;879;-83
2022/01/31 01:04:40;;;;;;;;;;;21.10;59.60;;;;;;682775;29;1223;-83
2022/01/31 01:05:00;;;;;;;;;;;21.10;60.50;;;;;;683087;29;851;-84
2022/01/31 01:05:21;;;;;;;;;;;21.10;60.90;;;;;;683057;29;807;-83
2022/01/31 01:05:41;;;;;;;;;;;21.10;60.10;;;;;;683390;28;938;-86
2022/01/31 01:06:02;;;;;;;;;;;21.10;61.00;;;;;;686099;28;815;-84
2022/01/31 01:06:23;;;;;;;;;;;21.10;59.70;;;;;;686056;28;1238;-84
2022/01/31 01:06:43;;;;;;;;;;;21.10;59.10;;;;;;688479;28;950;-84
2022/01/31 01:07:04;;;;;;;;;;;21.10;59.10;;;;;;685614;28;1505;-85
2022/01/31 01:07:24;;;;;;;;;;;21.10;59.00;;;;;;683341;28;788;-84
2022/01/31 01:07:46;;;;;;;;;;;21.10;58.80;;;;;;683073;28;1299;-84
2022/01/31 01:08:06;;;;;;;;;;;21.10;59.40;;;;;;683454;28;1500;-84
2022/01/31 01:08:27;;;;;;;;;;;21.10;59.80;;;;;;688377;28;1201;-83
2022/01/31 01:08:47;;;;;;;;;;;21.10;60.40;;;;;;688277;28;1979;-83
2022/01/31 01:09:08;;;;;;;;;;;21.00;60.10;;;;;;688509;28;926;-83
2022/01/31 01:09:28;;;;;;;;;;;21.00;59.20;;;;;;688090;28;1194;-82
2022/01/31 01:09:49;;;;;;;;;;;21.00;60.00;;;;;;685992;28;807;-84
2022/01/31 01:10:10;;;;;;;;;;;21.00;60.40;;;;;;689980;28;878;-84
2022/01/31 01:10:30;;;;;;;;;;;21.00;60.20;;;;;;692448;28;1009;-84
2022/01/31 01:10:51;;;;;;;;;;;21.00;60.40;;;;;;690207;28;862;-85
2022/01/31 01:11:11;;;;;;;;;;;21.00;59.80;;;;;;690121;28;1455;-85
2022/01/31 01:11:32;;;;;;;;;;;21.00;59.50;;;;;;693005;28;902;-84
2022/01/31 01:11:53;;;;;;;;;;;21.00;58.90;;;;;;690260;28;1360;-83
2022/01/31 01:12:15;;;;;;;;;;;21.00;59.30;;;;;;690087;28;842;-84
2022/01/31 01:12:35;;;;;;;;;;;21.00;58.60;;;;;;690299;28;1072;-84
2022/01/31 01:12:56;;;;;;;;;;;21.00;58.80;;;;;;687108;28;1218;-82
2022/01/31 01:13:16;;;;;;;;;;;21.00;58.70;;;;;;687070;28;1175;-82
2022/01/31 01:13:37;;;;;;;;;;;21.00;59.10;;;;;;687319;28;1032;-82
2022/01/31 01:13:57;;;;;;;;;;;21.00;58.80;;;;;;687207;28;931;-82
2022/01/31 01:14:18;;;;;;;;;;;21.00;59.00;;;;;;687297;28;917;-83
2022/01/31 01:14:39;;;;;;;;;;;21.00;58.70;;;;;;687874;28;1203;-83
2022/01/31 01:14:59;;;;;;;;;;;21.00;57.70;;;;;;689998;28;1364;-83
2022/01/31 01:15:20;;;;;;;;;;;21.10;57.60;;;;;;690371;28;819;-80
2022/01/31 01:15:41;;;;;;;;;;;21.10;57.50;;;;;;690168;28;1497;-82
2022/01/31 01:16:01;;;;;;;;;;;21.10;57.10;;;;;;690081;28;981;-84
2022/01/31 01:16:22;;;;;;;;;;;21.10;57.10;;;;;;686846;28;1382;-84
2022/01/31 01:16:42;;;;;;;;;;;21.10;56.70;;;;;;686264;28;819;-84
2022/01/31 01:17:03;;;;;;;;;;;21.10;57.30;;;;;;686018;28;985;-85
2022/01/31 01:17:24;;;;;;;;;;;21.10;56.10;;;;;;683359;28;1481;-84
2022/01/31 01:17:45;;;;;;;;;;;21.10;56.30;;;;;;685715;28;1086;-84
2022/01/31 01:18:06;;;;;;;;;;;21.10;56.40;;;;;;686320;28;808;-83
2022/01/31 01:18:27;;;;;;;;;;;21.10;56.10;;;;;;688392;28;960;-84
2022/01/31 01:18:47;;;;;;;;;;;21.10;56.60;;;;;;688379;28;922;-84
2022/01/31 01:19:08;;;;;;;;;;;21.10;56.10;;;;;;686194;28;839;-85
2022/01/31 01:19:28;;;;;;;;;;;21.10;56.20;;;;;;688446;28;803;-83
2022/01/31 01:19:49;;;;;;;;;;;21.10;55.80;;;;;;688479;28;799;-83
2022/01/31 01:20:10;;;;;;;;;;;21.10;55.70;;;;;;685734;28;1492;-84
2022/01/31 01:20:31;;;;;;;;;;;21.10;55.80;;;;;;683010;28;898;-85
2022/01/31 01:20:51;;;;;;;;;;;21.10;55.30;;;;;;680549;29;1310;-85
2022/01/31 01:21:12;;;;;;;;;;;21.10;55.40;;;;;;680579;29;1295;-85
2022/01/31 01:21:32;;;;;;;;;;;21.10;55.50;;;;;;680336;29;1241;-83
2022/01/31 01:21:53;;;;;;;;;;;21.10;55.60;;;;;;680722;29;849;-84
2022/01/31 01:22:13;;;;;;;;;;;21.10;55.60;;;;;;683258;28;914;-85
2022/01/31 01:22:34;;;;;;;;;;;21.10;55.70;;;;;;683378;28;1237;-84
2022/01/31 01:22:55;;;;;;;;;;;21.10;55.60;;;;;;685785;28;1490;-85
2022/01/31 01:23:15;;;;;;;;;;;21.10;55.30;;;;;;685502;28;1376;-85
2022/01/31 01:23:36;;;;;;;;;;;21.10;56.50;;;;;;683101;29;1194;-84
2022/01/31 01:23:56;;;;;;;;;;;21.10;54.90;;;;;;679627;29;935;-85
2022/01/31 01:24:17;;;;;;;;;;;21.20;54.80;;;;;;680695;29;780;-84
2022/01/31 01:24:38;;;;;;;;;;;21.10;54.40;;;;;;683473;28;906;-85
2022/01/31 01:25:00;;;;;;;;;;;21.20;54.90;;;;;;685627;28;835;-82
2022/01/31 01:25:21;;;;;;;;;;;21.20;54.90;;;;;;686233;28;1467;-87
2022/01/31 01:25:42;;;;;;;;;;;21.20;54.60;;;;;;686210;28;1126;-82
2022/01/31 01:26:03;;;;;;;;;;;21.10;54.50;;;;;;688465;28;873;-81
2022/01/31 01:26:23;;;;;;;;;;;21.10;54.60;;;;;;688342;28;779;-83
2022/01/31 01:26:44;;;;;;;;;;;21.10;54.10;;;;;;688369;28;1352;-82
2022/01/31 01:27:05;;;;;;;;;;;21.10;54.00;;;;;;685640;28;1342;-83
2022/01/31 01:27:25;;;;;;;;;;;21.20;54.40;;;;;;685677;28;838;-81
2022/01/31 01:27:49;;;;;;;;;;;21.20;54.30;;;;;;685691;28;822;-80
2022/01/31 01:28:10;;;;;;;;;;;21.20;54.30;;;;;;685861;28;811;-79
2022/01/31 01:28:31;;;;;;;;;;;21.20;54.10;;;;;;686522;28;811;-80
2022/01/31 01:28:51;;;;;;;;;;;21.20;53.80;;;;;;689263;28;1910;-81
2022/01/31 01:29:12;;;;;;;;;;;21.20;53.90;;;;;;691263;28;778;-82
2022/01/31 01:29:32;;;;;;;;;;;21.20;53.70;;;;;;688055;28;1210;-83
2022/01/31 01:29:53;;;;;;;;;;;21.20;53.60;;;;;;688291;28;1217;-85
2022/01/31 01:30:14;;;;;;;;;;;21.20;53.50;;;;;;685615;28;1228;-85
2022/01/31 01:30:35;;;;;;;;;;;21.20;53.50;;;;;;687520;28;1320;-84
2022/01/31 01:30:56;;;;;;;;;;;21.20;53.80;;;;;;685544;28;843;-85
2022/01/31 01:31:17;;;;;;;;;;;21.20;53.30;;;;;;688235;28;1217;-84
2022/01/31 01:31:38;;;;;;;;;;;21.20;53.10;;;;;;688041;28;1185;-85
2022/01/31 01:31:58;;;;;;;;;;;21.20;53.30;;;;;;688899;28;897;-84
2022/01/31 01:32:19;;;;;;;;;;;21.20;53.20;;;;;;691066;28;1096;-84
2022/01/31 01:33:21;;;;;;;;;;;21.20;53.20;;;;;;688124;28;866;-85
2022/01/31 01:33:42;;;;;;;;;;;21.20;52.90;;;;;;688421;28;1423;-86
2022/01/31 01:34:03;;;;;;;;;;;21.20;52.80;;;;;;688649;28;1330;-86
2022/01/31 01:34:25;;;;;;;;;;;21.20;52.80;;;;;;691516;28;850;-83
2022/01/31 01:34:45;;;;;;;;;;;21.20;52.80;;;;;;694028;28;830;-83
2022/01/31 01:35:07;;;;;;;;;;;21.20;52.80;;;;;;693985;28;1333;-85
2022/01/31 01:35:32;;;;;;;;;;;21.20;52.70;;;;;;690951;28;1244;-84
2022/01/31 01:35:54;;;;;;;;;;;21.20;52.40;;;;;;688372;28;1117;-85
2022/01/31 01:36:15;;;;;;;;;;;21.20;52.50;;;;;;688440;28;885;-84
2022/01/31 01:36:35;;;;;;;;;;;21.20;52.60;;;;;;688343;28;1451;-84
2022/01/31 01:36:56;;;;;;;;;;;21.20;52.00;;;;;;686801;28;1302;-83
2022/01/31 01:37:18;;;;;;;;;;;21.20;51.90;;;;;;689121;28;1450;-84
2022/01/31 01:37:38;;;;;;;;;;;21.20;52.20;;;;;;686404;28;883;-82
2022/01/31 01:38:05;;;;;;;;;;;21.20;52.20;;;;;;688414;28;898;-82
2022/01/31 01:38:29;;;;;;;;;;;21.20;52.40;;;;;;688356;28;874;-82
2022/01/31 01:38:50;;;;;;;;;;;21.20;51.70;;;;;;690214;28;1288;-82
2022/01/31 01:39:11;;;;;;;;;;;21.20;51.50;;;;;;691355;28;1373;-83
2022/01/31 01:39:32;;;;;;;;;;;21.30;51.60;;;;;;691194;28;1589;-83
2022/01/31 01:39:52;;;;;;;;;;;21.20;51.70;;;;;;691176;28;799;-84
2022/01/31 01:40:14;;;;;;;;;;;21.20;51.40;;;;;;691078;28;894;-84
2022/01/31 01:40:39;;;;;;;;;;;21.20;51.30;;;;;;691188;28;885;-84
2022/01/31 01:41:00;;;;;;;;;;;21.20;51.20;;;;;;692269;28;858;-81
2022/01/31 01:41:21;;;;;;;;;;;21.20;51.20;;;;;;690996;28;802;-83
2022/01/31 01:41:43;;;;;;;;;;;21.20;51.00;;;;;;688196;28;1502;-85
2022/01/31 01:42:04;;;;;;;;;;;21.20;51.20;;;;;;688512;28;803;-83
2022/01/31 01:42:24;;;;;;;;;;;21.20;51.00;;;;;;688446;28;938;-84
2022/01/31 01:42:45;;;;;;;;;;;21.20;51.00;;;;;;684931;28;1491;-83
2022/01/31 01:43:05;;;;;;;;;;;21.20;51.00;;;;;;683553;28;862;-84
2022/01/31 01:43:27;;;;;;;;;;;21.20;50.90;;;;;;686186;28;794;-84
2022/01/31 01:43:48;;;;;;;;;;;21.10;50.80;;;;;;688362;28;798;-83
2022/01/31 01:44:08;;;;;;;;;;;21.10;50.90;;;;;;688520;28;806;-85
2022/01/31 01:44:40;;;;;;;;;;;21.20;50.80;;;;;;685974;28;1219;-84
2022/01/31 01:45:02;;;;;;;;;;;21.20;50.90;;;;;;685779;28;1223;-85
2022/01/31 01:45:23;;;;;;;;;;;21.10;51.00;;;;;;685634;28;1292;-84
2022/01/31 01:45:43;;;;;;;;;;;21.10;50.90;;;;;;685695;28;780;-83
2022/01/31 01:46:04;;;;;;;;;;;21.10;50.80;;;;;;683347;28;1480;-83
2022/01/31 01:46:25;;;;;;;;;;;21.10;51.00;;;;;;687487;28;1426;-85
2022/01/31 01:46:46;;;;;;;;;;;21.10;50.90;;;;;;686286;28;1347;-84
2022/01/31 01:47:07;;;;;;;;;;;21.10;50.80;;;;;;686143;28;1590;-83
2022/01/31 01:47:27;;;;;;;;;;;21.10;50.80;;;;;;685944;28;1391;-82
2022/01/31 01:47:48;;;;;;;;;;;21.10;50.80;;;;;;685948;28;1777;-80
2022/01/31 01:48:09;;;;;;;;;;;21.10;50.90;;;;;;688979;28;807;-83
2022/01/31 01:48:30;;;;;;;;;;;21.10;50.70;;;;;;687959;28;1356;-84
2022/01/31 01:48:50;;;;;;;;;;;21.00;50.70;;;;;;688333;28;1903;-81
2022/01/31 01:49:11;;;;;;;;;;;21.10;50.80;;;;;;690803;28;1590;-84
2022/01/31 01:49:31;;;;;;;;;;;21.10;50.60;;;;;;688281;28;1492;-85
2022/01/31 01:49:53;;;;;;;;;;;21.10;50.80;;;;;;685675;28;1215;-84
2022/01/31 01:50:13;;;;;;;;;;;21.00;50.10;;;;;;685990;28;910;-86
2022/01/31 01:50:35;;;;;;;;;;;21.10;50.40;;;;;;688557;28;1068;-84
2022/01/31 01:50:56;;;;;;;;;;;21.00;50.30;;;;;;688371;28;1263;-87
2022/01/31 01:51:17;;;;;;;;;;;21.10;50.20;;;;;;685771;28;1374;-85
2022/01/31 01:51:37;;;;;;;;;;;21.00;50.00;;;;;;686083;28;1290;-82
2022/01/31 01:51:58;;;;;;;;;;;21.00;50.10;;;;;;685629;28;1209;-81
2022/01/31 01:52:19;;;;;;;;;;;21.00;50.20;;;;;;686244;28;831;-84
2022/01/31 01:52:39;;;;;;;;;;;21.00;50.10;;;;;;688431;28;842;-83
2022/01/31 01:53:00;;;;;;;;;;;21.00;50.20;;;;;;685499;28;1682;-84
2022/01/31 01:53:21;;;;;;;;;;;21.00;49.80;;;;;;681399;29;1464;-85
2022/01/31 01:53:42;;;;;;;;;;;21.00;49.30;;;;;;683286;28;1476;-85
2022/01/31 01:54:03;;;;;;;;;;;21.00;49.60;;;;;;685804;28;539;-85
2022/01/31 01:54:23;;;;;;;;;;;21.00;49.50;;;;;;685789;28;799;-86
2022/01/31 01:54:47;;;;;;;;;;;21.00;49.70;;;;;;688578;28;878;-89
2022/01/31 01:55:08;;;;;;;;;;;21.00;49.60;;;;;;689501;28;945;-91
2022/01/31 01:55:29;;;;;;;;;;;21.00;49.60;;;;;;688424;28;1427;-87
2022/01/31 01:55:52;;;;;;;;;;;21.00;49.70;;;;;;688399;28;1145;-87
2022/01/31 01:56:14;;;;;;;;;;;21.00;49.50;;;;;;688444;28;831;-87
2022/01/31 01:56:34;;;;;;;;;;;21.00;49.10;;;;;;685844;28;982;-88
2022/01/31 01:56:58;;;;;;;;;;;21.00;49.50;;;;;;685690;28;1648;-84
2022/01/31 01:57:20;;;;;;;;;;;21.00;49.30;;;;;;684175;28;1154;-86
2022/01/31 01:57:41;;;;;;;;;;;20.90;49.30;;;;;;685890;28;807;-90
2022/01/31 01:58:04;;;;;;;;;;;21.00;49.10;;;;;;683173;29;1273;-88
2022/01/31 01:58:25;;;;;;;;;;;20.90;49.10;;;;;;684374;28;787;-87
2022/01/31 01:58:48;;;;;;;;;;;20.90;48.90;;;;;;685798;28;867;-90
2022/01/31 01:59:10;;;;;;;;;;;21.00;49.30;;;;;;687073;28;811;-85
2022/01/31 01:59:35;;;;;;;;;;;20.90;49.00;;;;;;688395;28;842;-85
2022/01/31 01:59:57;;;;;;;;;;;20.90;49.00;;;;;;687444;28;1148;-93
2022/01/31 02:00:25;;;;;;;;;;;20.90;49.00;;;;;;688597;28;1669;-95
2022/01/31 02:00:50;;;;;;;;;;;20.90;48.90;;;;;;688456;28;831;-85
2022/01/31 02:01:12;;;;;;;;;;;20.90;48.60;;;;;;686906;28;1694;-86
2022/01/31 02:01:32;;;;;;;;;;;20.90;48.60;;;;;;688555;28;802;-85
2022/01/31 02:01:53;;;;;;;;;;;20.90;48.60;;;;;;688509;28;926;-88
2022/01/31 02:02:13;;;;;;;;;;;20.90;48.70;;;;;;687751;28;1245;-86
2022/01/31 02:02:34;;;;;;;;;;;20.90;48.50;;;;;;688527;28;806;-87
2022/01/31 02:02:55;;;;;;;;;;;20.90;48.60;;;;;;685992;28;1418;-88
2022/01/31 02:03:16;;;;;;;;;;;20.90;48.70;;;;;;688429;28;795;-85
2022/01/31 02:03:38;;;;;;;;;;;20.90;48.90;;;;;;688471;28;889;-87
2022/01/31 02:03:59;;;;;;;;;;;20.90;48.10;;;;;;686275;28;1141;-88
2022/01/31 02:04:19;;;;;;;;;;;21.20;48.60;;;;;;685799;28;1225;-89
2022/01/31 02:04:41;;;;;;;;;;;20.90;48.20;;;;;;686502;28;807;-89
2022/01/31 02:05:02;;;;;;;;;;;20.90;48.30;;;;;;685733;28;1134;-86
2022/01/31 02:05:22;;;;;;;;;;;20.90;48.60;;;;;;685634;28;1202;-85
2022/01/31 02:05:43;;;;;;;;;;;20.90;48.30;;;;;;686424;28;807;-91
2022/01/31 02:06:05;;;;;;;;;;;20.90;49.10;;;;;;686315;28;1350;-89
2022/01/31 02:06:25;;;;;;;;;;;20.90;48.20;;;;;;683991;28;1651;-85
2022/01/31 02:06:46;;;;;;;;;;;20.90;48.00;;;;;;683354;28;1077;-83
2022/01/31 02:07:12;;;;;;;;;;;20.90;47.90;;;;;;687650;28;1827;-83
2022/01/31 02:07:34;;;;;;;;;;;20.90;47.90;;;;;;685815;28;811;-85
2022/01/31 02:07:54;;;;;;;;;;;20.90;47.40;;;;;;684265;28;1356;-85
2022/01/31 02:08:17;;;;;;;;;;;20.90;47.70;;;;;;682513;29;1571;-84
2022/01/31 02:08:42;;;;;;;;;;;22.30;48.60;;;;;;684564;28;1249;-86
2022/01/31 02:09:03;;;;;;;;;;;20.80;48.00;;;;;;687717;28;1891;-86
2022/01/31 02:09:27;;;;;;;;;;;20.90;48.10;;;;;;685856;28;1391;-81
2022/01/31 02:09:54;;;;;;;;;;;20.90;48.00;;;;;;687201;28;914;-84
2022/01/31 02:10:15;;;;;;;;;;;20.80;47.80;;;;;;690490;28;1353;-82
2022/01/31 02:10:39;;;;;;;;;;;20.90;47.10;;;;;;691207;28;818;-85
2022/01/31 02:10:59;;;;;;;;;;;19.90;46.50;;;;;;688382;28;1208;-88